Lena, Louisiana
Current Conditions -  °F | °C
As of 1:53 PM on Sunday 25 Jan 2015 (Local Time) from KAEX Reporting Station
Clear Clear  
Wind Chill: 66°   Ceiling: Unl
Heat Index: 66°   Visibility: 10mi
Dew Point: 42°   Wind: 9mph
Humidity: 42%   Direction: 260°W
Pressure: 29.84"   Gusts: NA
Location:  31.46°N, 92.77°W
Report Text: KAEX 251953Z 26008KT 10SM CLR 19/06 A2984 RMK AO2 SLP111 T01890056 $
Loading
Personal Weather Stations






























Interactive Weather Map New forecast layout! Learn more

10-Day Weather Forecast

Advertisements
Track Severe Weather on mobile